Time;durP1;ratioP1;P1;durP2;ratioP2;P2;SDS_P1;SDS_P2;PMS_P1;PMS_P2;Temp;Humidity;BMP_temperature;BMP_pressure;BME280_temperature;BME280_humidity;BME280_pressure;Samples;Min_cycle;Max_cycle;Signal;HPM_P1;HPM_P2
2023/04/25 00:02:22;;;;;;;20.07;5.60;;;;;;;41.62;37.74;100896.53;5081935;28;20812;-88
2023/04/25 00:04:48;;;;;;;12.70;5.17;;;;;;;41.73;37.56;100911.31;5090081;28;20460;-88
2023/04/25 00:07:14;;;;;;;17.03;4.70;;;;;;;41.81;37.62;100915.97;5090637;28;20183;-88
2023/04/25 00:09:41;;;;;;;14.77;5.97;;;;;;;41.82;37.49;100912.09;5076328;28;20185;-88
2023/04/25 00:12:07;;;;;;;12.40;5.63;;;;;;;41.82;37.83;100903.13;5090472;28;20424;-88
2023/04/25 00:14:33;;;;;;;14.30;5.40;;;;;;;41.74;38.05;100891.19;5089808;28;20417;-88
2023/04/25 00:17:00;;;;;;;16.90;7.13;;;;;;;41.85;37.91;100897.81;5091150;28;20445;-88
2023/04/25 00:19:28;;;;;;;20.53;5.30;;;;;;;41.79;38.19;100898.34;5085112;28;20418;-88
2023/04/25 00:21:56;;;;;;;12.50;6.10;;;;;;;41.80;37.97;100897.22;5058980;28;20572;-88
2023/04/25 00:24:22;;;;;;;21.70;7.17;;;;;;;41.70;37.89;100887.50;5063193;28;20539;-88
2023/04/25 00:26:48;;;;;;;19.60;8.07;;;;;;;41.68;38.28;100881.59;5090394;28;20566;-88
2023/04/25 00:29:14;;;;;;;18.50;6.93;;;;;;;41.71;38.12;100882.84;5076544;28;20202;-88
2023/04/25 00:31:40;;;;;;;19.00;6.33;;;;;;;41.68;38.35;100872.59;5077459;28;20421;-88
2023/04/25 00:34:08;;;;;;;17.73;6.27;;;;;;;41.70;38.30;100870.34;5082463;28;20499;-88
2023/04/25 00:36:34;;;;;;;17.87;7.33;;;;;;;41.74;38.00;100863.94;5070526;28;20294;-88
2023/04/25 00:39:00;;;;;;;12.00;6.27;;;;;;;41.71;38.45;100861.06;5082935;28;20528;-88
2023/04/25 00:41:27;;;;;;;22.97;8.23;;;;;;;41.72;38.09;100863.44;5070238;28;21012;-88
2023/04/25 00:43:54;;;;;;;21.23;9.53;;;;;;;41.70;38.23;100860.25;5075683;28;20476;-88
2023/04/25 00:46:20;;;;;;;21.70;9.30;;;;;;;41.64;37.99;100847.97;5070047;28;20425;-88
2023/04/25 00:48:46;;;;;;;19.20;8.73;;;;;;;41.64;38.29;100839.00;5088372;28;20409;-88
2023/04/25 00:51:19;;;;;;;17.43;8.53;;;;;;;41.68;37.97;100853.53;5077092;28;20441;-88
2023/04/25 00:53:45;;;;;;;25.60;10.27;;;;;;;41.64;38.24;100850.69;5076778;28;20417;-88
2023/04/25 00:56:11;;;;;;;20.27;9.57;;;;;;;41.67;38.19;100843.78;5075753;28;20894;-88
2023/04/25 00:58:38;;;;;;;18.77;8.07;;;;;;;41.68;38.40;100850.81;5076901;28;20778;-89
2023/04/25 01:01:04;;;;;;;15.17;7.80;;;;;;;41.59;38.25;100845.44;5088274;28;20528;-88
2023/04/25 01:03:35;;;;;;;19.23;8.13;;;;;;;41.59;38.46;100831.81;5070174;28;20877;-88
2023/04/25 01:06:02;;;;;;;20.70;8.00;;;;;;;41.62;38.08;100836.63;5083061;28;20445;-88
2023/04/25 01:08:28;;;;;;;25.30;11.97;;;;;;;41.56;38.42;100821.59;5070956;28;20422;-88
2023/04/25 01:10:54;;;;;;;23.00;7.90;;;;;;;41.56;38.12;100813.44;5069970;28;20495;-88
2023/04/25 01:13:20;;;;;;;14.50;7.37;;;;;;;41.51;38.02;100813.63;5077219;28;20244;-88
2023/04/25 01:15:46;;;;;;;13.03;7.60;;;;;;;41.59;38.11;100819.00;5089573;28;20435;-88
2023/04/25 01:18:12;;;;;;;16.13;6.40;;;;;;;41.55;38.47;100817.25;5086116;28;20426;-88
2023/04/25 01:20:41;;;;;;;17.93;6.17;;;;;;;41.61;38.21;100821.38;5087129;28;20413;-89
2023/04/25 01:23:08;;;;;;;17.50;7.40;;;;;;;41.52;38.03;100807.84;5085948;28;20418;-89
2023/04/25 01:25:34;;;;;;;13.90;5.87;;;;;;;41.55;37.83;100801.72;5085877;28;20452;-88
2023/04/25 01:28:00;;;;;;;14.73;6.30;;;;;;;41.54;38.24;100800.13;5073251;28;20449;-88
2023/04/25 01:30:27;;;;;;;14.67;7.33;;;;;;;41.57;37.87;100801.41;5073200;28;20425;-88
2023/04/25 01:32:56;;;;;;;15.43;7.33;;;;;;;41.65;37.65;100797.81;5074190;28;20432;-88
2023/04/25 01:35:23;;;;;;;14.23;6.00;;;;;;;41.61;38.13;100796.88;5069245;28;20469;-88
2023/04/25 01:37:51;;;;;;;14.70;8.03;;;;;;;41.65;37.37;100792.38;5076224;28;20454;-88
2023/04/25 01:40:18;;;;;;;20.80;7.63;;;;;;;41.61;37.82;100780.53;5056886;28;20520;-88
2023/04/25 01:42:45;;;;;;;22.87;7.80;;;;;;;41.56;38.13;100780.75;5084166;28;20421;-90
2023/04/25 01:45:12;;;;;;;22.33;8.37;;;;;;;41.62;38.14;100773.97;5061532;28;20994;-89
2023/04/25 01:47:39;;;;;;;25.70;10.00;;;;;;;41.60;38.39;100779.75;5056133;28;20415;-89
2023/04/25 01:50:07;;;;;;;21.80;10.50;;;;;;;41.56;38.61;100769.88;5054453;28;20419;-89
2023/04/25 01:52:33;;;;;;;21.60;11.60;;;;;;;41.48;38.65;100773.44;5053898;28;20450;-88
2023/04/25 01:55:02;;;;;;;19.77;10.73;;;;;;;41.53;38.88;100767.78;5080215;28;20484;-88
2023/04/25 01:57:28;;;;;;;30.97;14.73;;;;;;;41.40;38.87;100758.78;5054249;28;20946;-88
2023/04/25 02:00:00;;;;;;;23.13;12.97;;;;;;;41.42;38.78;100764.69;5054575;28;20450;-88
2023/04/25 02:02:26;;;;;;;22.97;15.23;;;;;;;41.43;39.23;100766.25;5054065;28;20430;-88
2023/04/25 02:04:52;;;;;;;26.00;17.40;;;;;;;41.34;39.14;100755.47;5058713;28;20461;-88
2023/04/25 02:07:18;;;;;;;25.13;14.70;;;;;;;41.26;39.00;100744.63;5085660;28;20562;-88
2023/04/25 02:09:44;;;;;;;29.30;16.20;;;;;;;41.43;39.16;100762.75;5087756;28;20516;-88
2023/04/25 02:12:10;;;;;;;36.50;16.90;;;;;;;41.40;39.03;100763.44;5073317;28;20268;-88
2023/04/25 02:14:37;;;;;;;27.37;16.33;;;;;;;41.34;39.38;100760.09;5092161;28;20790;-88
2023/04/25 02:17:03;;;;;;;26.30;16.20;;;;;;;41.28;39.09;100755.97;5068922;28;20427;-89
2023/04/25 02:19:29;;;;;;;26.90;15.37;;;;;;;41.29;38.99;100763.78;5054083;28;20419;-88
2023/04/25 02:21:56;;;;;;;23.57;16.00;;;;;;;41.27;39.05;100757.88;5053587;28;20485;-88
2023/04/25 02:24:23;;;;;;;24.90;16.40;;;;;;;41.08;39.50;100752.13;5053297;28;20629;-88
2023/04/25 02:26:49;;;;;;;27.60;20.20;;;;;;;41.08;39.98;100773.88;5056576;28;20841;-88
2023/04/25 02:29:15;;;;;;;30.03;21.80;;;;;;;41.03;40.18;100776.78;5059158;28;20495;-88
2023/04/25 02:31:42;;;;;;;42.53;25.40;;;;;;;41.15;39.54;100781.53;5073288;28;20422;-89
2023/04/25 02:34:08;;;;;;;35.20;20.47;;;;;;;41.15;39.69;100774.16;5079737;28;20441;-90
2023/04/25 02:36:35;;;;;;;27.80;20.33;;;;;;;41.20;39.54;100770.44;5092820;28;20944;-88
2023/04/25 02:39:02;;;;;;;34.93;22.67;;;;;;;41.20;39.48;100779.41;5073002;28;20429;-88
2023/04/25 02:41:29;;;;;;;34.23;21.83;;;;;;;41.16;39.52;100783.09;5072668;28;20434;-88
2023/04/25 02:43:55;;;;;;;31.10;24.40;;;;;;;41.13;39.68;100787.31;5071784;28;20535;-88
2023/04/25 02:46:21;;;;;;;32.60;22.70;;;;;;;41.12;39.28;100785.69;5063322;28;20421;-88
2023/04/25 02:48:46;;;;;;;33.53;23.60;;;;;;;41.12;39.18;100774.00;5053186;28;20465;-88
2023/04/25 02:51:13;;;;;;;31.60;24.90;;;;;;;41.14;39.12;100788.09;5052596;28;20458;-88
2023/04/25 02:53:39;;;;;;;44.77;26.60;;;;;;;41.14;39.12;100788.88;5052982;28;20729;-88
2023/04/25 02:56:05;;;;;;;36.50;27.20;;;;;;;40.95;39.37;100774.94;5052733;28;20427;-88
2023/04/25 02:58:31;;;;;;;44.70;36.60;;;;;;;41.08;39.58;100796.44;5052035;28;20207;-88
2023/04/25 03:00:57;;;;;;;49.00;41.67;;;;;;;41.08;39.24;100796.44;5052488;28;20433;-88
2023/04/25 03:03:23;;;;;;;84.43;56.70;;;;;;;41.13;39.29;100795.47;5058862;28;20216;-88
2023/04/25 03:05:50;;;;;;;80.27;64.60;;;;;;;41.13;39.31;100802.81;5060000;28;20261;-88
2023/04/25 03:08:17;;;;;;;83.30;58.03;;;;;;;40.85;39.45;100786.16;5065823;28;20199;-88
2023/04/25 03:10:43;;;;;;;67.73;52.83;;;;;;;40.70;39.68;100790.19;5065774;28;20450;-88
2023/04/25 03:13:10;;;;;;;56.87;42.00;;;;;;;40.85;39.34;100791.59;5085598;28;20445;-88
2023/04/25 03:15:36;;;;;;;50.80;37.30;;;;;;;40.78;39.82;100802.97;5085183;28;20420;-88
2023/04/25 03:18:02;;;;;;;41.93;31.27;;;;;;;40.77;39.50;100804.91;5084453;28;20414;-88
2023/04/25 03:20:28;;;;;;;42.40;31.10;;;;;;;40.66;39.72;100795.50;5071618;28;20943;-88
2023/04/25 03:22:55;;;;;;;32.47;25.10;;;;;;;40.77;39.48;100799.47;5091520;28;20482;-88
2023/04/25 03:25:21;;;;;;;35.40;23.87;;;;;;;40.74;39.22;100805.53;5077411;28;20566;-88
2023/04/25 03:27:46;;;;;;;33.93;23.07;;;;;;;40.80;39.61;100800.72;5083884;28;20965;-88
2023/04/25 03:30:12;;;;;;;32.13;21.83;;;;;;;40.76;39.28;100803.31;5081841;28;20424;-88
2023/04/25 03:32:38;;;;;;;27.13;21.80;;;;;;;40.83;39.28;100813.69;5070445;28;20437;-88
2023/04/25 03:35:05;;;;;;;24.67;19.00;;;;;;;40.86;38.93;100807.56;5057513;28;20449;-89
2023/04/25 03:37:31;;;;;;;29.60;21.53;;;;;;;40.84;39.16;100801.66;5060547;28;20175;-89
2023/04/25 03:39:57;;;;;;;25.03;19.23;;;;;;;40.82;39.38;100806.63;5080317;28;20423;-88
2023/04/25 03:42:23;;;;;;;25.80;19.37;;;;;;;40.85;39.25;100794.31;5065250;28;20508;-89
2023/04/25 03:44:49;;;;;;;21.23;18.77;;;;;;;40.83;39.09;100791.91;5077614;28;20227;-88
2023/04/25 03:47:16;;;;;;;25.37;18.93;;;;;;;40.85;39.37;100797.81;5071962;28;20179;-88
2023/04/25 03:49:42;;;;;;;33.10;17.00;;;;;;;40.89;39.18;100792.53;5084147;28;20774;-88
2023/04/25 03:52:08;;;;;;;26.77;17.53;;;;;;;40.97;39.14;100797.94;5071395;28;20520;-89
2023/04/25 03:54:34;;;;;;;32.53;19.03;;;;;;;40.98;38.74;100796.03;5085716;28;20421;-88
2023/04/25 03:57:00;;;;;;;37.17;17.07;;;;;;;40.93;38.71;100799.72;5078540;28;20424;-88
2023/04/25 03:59:26;;;;;;;30.70;19.73;;;;;;;40.90;38.88;100783.25;5090094;28;20444;-87
2023/04/25 04:01:52;;;;;;;23.90;15.70;;;;;;;40.77;38.68;100791.31;5054290;28;20651;-88
2023/04/25 04:04:18;;;;;;;24.20;19.03;;;;;;;40.78;38.99;100784.75;5055859;28;20836;-88
2023/04/25 04:06:45;;;;;;;22.77;15.30;;;;;;;40.84;39.05;100787.28;5063538;28;20418;-88
2023/04/25 04:09:12;;;;;;;24.67;16.00;;;;;;;40.72;38.91;100791.50;5054127;28;20423;-88
2023/04/25 04:11:39;;;;;;;24.43;16.00;;;;;;;40.70;38.92;100790.19;5052026;28;20514;-88
2023/04/25 04:14:06;;;;;;;23.70;16.50;;;;;;;40.71;38.88;100791.81;5051736;28;20466;-87
2023/04/25 04:16:32;;;;;;;21.80;13.70;;;;;;;40.77;39.28;100785.06;5051359;28;21009;-88
2023/04/25 04:18:58;;;;;;;28.30;18.33;;;;;;;40.87;38.66;100798.28;5053322;28;20414;-87
2023/04/25 04:21:24;;;;;;;29.97;15.20;;;;;;;40.80;38.98;100795.28;5068332;28;20925;-87
2023/04/25 04:23:50;;;;;;;18.90;13.00;;;;;;;40.71;38.61;100787.19;5057123;28;20454;-89
2023/04/25 04:26:16;;;;;;;18.53;13.57;;;;;;;40.76;38.79;100806.03;5051979;28;20423;-89
2023/04/25 04:28:43;;;;;;;19.10;13.80;;;;;;;40.78;39.34;100806.50;5053372;28;20442;-88
2023/04/25 04:31:10;;;;;;;23.27;14.70;;;;;;;40.80;39.02;100793.34;5063989;28;20422;-88
2023/04/25 04:33:37;;;;;;;19.73;16.67;;;;;;;40.88;38.77;100794.44;5053973;28;20419;-88
2023/04/25 04:36:04;;;;;;;25.83;16.57;;;;;;;40.68;39.32;100795.97;5064598;28;20962;-88
2023/04/25 04:38:30;;;;;;;23.33;17.97;;;;;;;40.75;39.52;100809.84;5059002;28;20465;-88
2023/04/25 04:40:57;;;;;;;24.40;16.83;;;;;;;40.73;39.06;100808.59;5063702;28;20453;-88
2023/04/25 04:43:22;;;;;;;20.67;15.57;;;;;;;40.68;39.45;100806.84;5065686;28;20458;-88
2023/04/25 04:45:49;;;;;;;20.00;14.37;;;;;;;40.72;39.04;100804.28;5078748;28;20484;-88
2023/04/25 04:48:16;;;;;;;22.20;14.90;;;;;;;40.81;39.06;100805.03;5076580;28;20483;-88
2023/04/25 04:50:45;;;;;;;19.97;13.40;;;;;;;40.69;39.22;100805.72;5092134;28;20440;-88
2023/04/25 04:53:11;;;;;;;23.73;16.13;;;;;;;40.80;39.07;100815.13;5080118;28;20426;-88
2023/04/25 04:55:37;;;;;;;23.10;14.10;;;;;;;40.80;39.07;100823.28;5085665;28;20456;-88
2023/04/25 04:58:03;;;;;;;24.80;17.10;;;;;;;40.74;39.23;100812.91;5068562;28;20519;-87
2023/04/25 05:00:30;;;;;;;26.03;16.27;;;;;;;40.71;38.95;100802.69;5094434;28;20459;-88
2023/04/25 05:02:56;;;;;;;23.73;14.80;;;;;;;40.70;38.95;100809.25;5077855;28;20874;-88
2023/04/25 05:05:22;;;;;;;29.27;14.83;;;;;;;40.74;39.33;100821.06;5092495;28;20452;-87
2023/04/25 05:07:48;;;;;;;24.70;15.77;;;;;;;40.70;39.02;100818.22;5088652;28;20513;-88
2023/04/25 05:10:14;;;;;;;22.40;14.57;;;;;;;40.75;39.04;100828.91;5082515;28;20511;-88
2023/04/25 05:12:40;;;;;;;28.70;16.30;;;;;;;40.70;39.37;100829.09;5073178;28;20201;-88
2023/04/25 05:15:06;;;;;;;32.03;16.73;;;;;;;40.77;39.27;100844.91;5083555;28;20422;-88
2023/04/25 05:17:32;;;;;;;26.80;20.57;;;;;;;40.78;38.97;100836.41;5086994;28;20176;-88
2023/04/25 05:19:59;;;;;;;33.20;22.10;;;;;;;40.79;38.93;100831.78;5091866;28;20836;-88
2023/04/25 05:22:24;;;;;;;31.70;21.70;;;;;;;40.76;39.03;100830.50;5077392;28;20423;-90
2023/04/25 05:24:51;;;;;;;34.93;20.43;;;;;;;40.73;39.06;100825.72;5083209;28;20515;-90
2023/04/25 05:27:18;;;;;;;29.63;18.33;;;;;;;40.71;39.28;100825.25;5069844;28;20191;-88
2023/04/25 05:29:44;;;;;;;31.37;19.00;;;;;;;40.73;39.07;100824.91;5082274;28;20428;-88
2023/04/25 05:32:11;;;;;;;32.60;18.83;;;;;;;40.69;39.54;100826.69;5066030;28;20870;-88
2023/04/25 05:34:37;;;;;;;35.80;23.97;;;;;;;40.65;39.26;100815.69;5074427;28;20424;-88
2023/04/25 05:37:03;;;;;;;60.50;45.47;;;;;;;40.60;39.32;100820.50;5077165;28;20505;-88
2023/04/25 05:39:29;;;;;;;60.27;48.47;;;;;;;40.70;39.22;100826.38;5060146;28;20441;-88
2023/04/25 05:41:55;;;;;;;44.77;35.33;;;;;;;40.71;39.31;100819.03;5070176;28;20428;-87
2023/04/25 05:44:21;;;;;;;44.67;30.57;;;;;;;40.64;39.45;100824.97;5071347;28;20542;-88
2023/04/25 05:46:47;;;;;;;43.07;29.17;;;;;;;40.68;39.25;100825.09;5063670;28;20558;-89
2023/04/25 05:49:13;;;;;;;47.10;31.87;;;;;;;40.71;38.93;100824.47;5054655;28;20427;-88
2023/04/25 05:51:39;;;;;;;47.60;33.37;;;;;;;40.57;39.28;100802.09;5060583;28;21143;-87
2023/04/25 05:54:05;;;;;;;58.60;44.07;;;;;;;40.72;39.40;100839.66;5064513;28;20501;-87
2023/04/25 05:56:31;;;;;;;69.27;59.87;;;;;;;40.66;39.52;100835.50;5065173;28;20425;-87
2023/04/25 05:58:56;;;;;;;79.37;66.60;;;;;;;40.69;39.39;100841.06;5064875;28;20807;-87
2023/04/25 06:01:23;;;;;;;86.03;65.80;;;;;;;40.70;39.05;100847.31;5053940;28;20203;-87
2023/04/25 06:03:51;;;;;;;62.73;53.17;;;;;;;40.66;39.31;100849.91;5054019;28;20462;-87
2023/04/25 06:06:17;;;;;;;59.37;45.23;;;;;;;40.73;39.52;100846.69;5057468;28;20796;-89
2023/04/25 06:08:43;;;;;;;44.47;33.47;;;;;;;40.71;39.30;100857.09;5054565;28;20510;-87
2023/04/25 06:11:09;;;;;;;39.20;31.07;;;;;;;40.62;39.39;100854.38;5057799;28;20595;-87
2023/04/25 06:13:35;;;;;;;35.17;26.90;;;;;;;40.63;39.42;100847.81;5063586;28;20879;-87
2023/04/25 06:16:01;;;;;;;41.27;25.63;;;;;;;40.77;39.17;100863.94;5058500;28;20520;-87
2023/04/25 06:18:27;;;;;;;41.60;26.23;;;;;;;40.77;39.42;100872.91;5063216;28;20969;-87
2023/04/25 06:20:53;;;;;;;40.27;28.57;;;;;;;40.87;39.07;100876.38;5055647;28;20476;-87
2023/04/25 06:23:18;;;;;;;37.60;28.50;;;;;;;40.80;39.07;100858.63;5053041;28;20447;-87
2023/04/25 06:25:44;;;;;;;34.73;25.67;;;;;;;40.76;39.19;100857.72;5058651;28;20983;-87
2023/04/25 06:28:10;;;;;;;40.60;29.43;;;;;;;40.78;39.02;100863.63;5061610;28;21021;-87
2023/04/25 06:30:36;;;;;;;41.90;30.57;;;;;;;40.74;39.32;100878.97;5060962;28;20502;-87
2023/04/25 06:33:02;;;;;;;39.60;32.20;;;;;;;40.76;39.51;100886.81;5065930;28;20427;-87
2023/04/25 06:35:28;;;;;;;53.03;32.90;;;;;;;40.84;39.20;100890.66;5053384;28;20434;-87
2023/04/25 06:37:54;;;;;;;46.10;33.53;;;;;;;40.84;39.20;100890.66;5061554;28;20427;-87
2023/04/25 06:40:20;;;;;;;50.27;35.03;;;;;;;40.78;39.42;100873.69;5052479;28;20176;-89
2023/04/25 06:42:46;;;;;;;56.27;33.20;;;;;;;40.78;39.02;100873.69;5063050;28;20413;-87
2023/04/25 06:45:12;;;;;;;48.73;31.13;;;;;;;40.98;39.08;100894.75;5057781;28;20467;-87
2023/04/25 06:47:38;;;;;;;39.63;30.30;;;;;;;40.92;39.02;100881.66;5062192;28;20431;-87
2023/04/25 06:50:05;;;;;;;50.23;29.10;;;;;;;41.01;38.88;100915.88;5069785;28;20433;-87
2023/04/25 06:52:31;;;;;;;44.20;30.60;;;;;;;41.07;38.97;100925.47;5061004;28;20470;-87
2023/04/25 06:54:57;;;;;;;43.07;31.47;;;;;;;41.06;39.02;100921.13;5063430;28;20426;-88
2023/04/25 06:57:23;;;;;;;43.03;35.87;;;;;;;40.88;39.45;100900.53;5063471;28;20420;-84
2023/04/25 06:59:49;;;;;;;46.53;30.60;;;;;;;41.02;38.99;100914.75;5073533;28;20418;-85
2023/04/25 07:02:15;;;;;;;38.50;30.23;;;;;;;40.92;39.17;100922.47;5071046;28;20422;-85
2023/04/25 07:04:41;;;;;;;39.20;27.57;;;;;;;40.90;39.08;100913.81;5073939;28;20199;-86
2023/04/25 07:07:07;;;;;;;43.53;25.70;;;;;;;41.00;39.10;100932.53;5072347;28;20627;-85
2023/04/25 07:09:33;;;;;;;32.23;23.83;;;;;;;41.01;39.32;100915.09;5062784;28;20183;-85
2023/04/25 07:12:03;;;;;;;26.00;20.40;;;;;;;40.93;39.10;100933.03;5061252;28;20563;-84
2023/04/25 07:14:29;;;;;;;28.53;20.33;;;;;;;40.95;39.36;100947.13;5060870;28;20501;-83
2023/04/25 07:16:56;;;;;;;31.57;19.93;;;;;;;40.98;39.06;100941.00;5068925;28;20449;-84
2023/04/25 07:19:26;;;;;;;34.10;22.63;;;;;;;41.13;38.79;100941.59;5069243;28;20455;-84
2023/04/25 07:21:52;;;;;;;27.90;17.90;;;;;;;41.11;38.85;100946.56;5070971;28;20961;-83
2023/04/25 07:24:18;;;;;;;28.40;16.10;;;;;;;41.06;39.00;100942.09;5067466;28;20493;-87
2023/04/25 07:26:44;;;;;;;30.40;18.07;;;;;;;41.16;38.90;100949.91;5073019;28;20455;-90
2023/04/25 07:29:10;;;;;;;34.73;19.77;;;;;;;41.05;39.27;100943.22;5070516;28;20210;-85
2023/04/25 07:31:36;;;;;;;21.30;14.17;;;;;;;41.22;39.11;100953.25;5073984;28;20476;-86
2023/04/25 07:34:02;;;;;;;27.07;13.67;;;;;;;41.24;39.10;100954.50;5063099;28;20198;-88
2023/04/25 07:36:28;;;;;;;26.40;15.43;;;;;;;41.23;38.74;100949.41;5063764;28;20270;-88
2023/04/25 07:38:54;;;;;;;28.37;15.40;;;;;;;41.32;38.41;100963.78;5051712;28;20423;-87
2023/04/25 07:41:20;;;;;;;28.83;22.03;;;;;;;41.24;38.19;100968.13;5052546;28;20969;-87
2023/04/25 07:43:46;;;;;;;22.30;11.67;;;;;;;41.15;38.46;100967.38;5065163;28;20223;-86
2023/04/25 07:46:12;;;;;;;18.70;12.43;;;;;;;41.29;38.80;100959.78;5065663;28;20219;-86
2023/04/25 07:48:38;;;;;;;23.40;12.90;;;;;;;41.39;38.45;100969.53;5057498;28;20179;-88
2023/04/25 07:51:05;;;;;;;30.47;13.10;;;;;;;41.43;38.22;100973.19;5058055;28;20441;-84
2023/04/25 07:53:31;;;;;;;27.87;15.57;;;;;;;41.42;38.18;100966.16;5066068;28;20229;-88
2023/04/25 07:55:57;;;;;;;21.40;14.70;;;;;;;41.53;38.20;100975.53;5060885;28;20418;-84
2023/04/25 07:58:23;;;;;;;23.83;15.33;;;;;;;41.20;38.87;100978.09;5062327;28;20445;-86
2023/04/25 08:00:49;;;;;;;29.40;13.50;;;;;;;41.36;38.49;100972.09;5070851;28;20426;-87
2023/04/25 08:03:15;;;;;;;19.57;9.27;;;;;;;41.49;38.16;100968.34;5060803;28;20454;-84
2023/04/25 08:05:41;;;;;;;19.43;9.03;;;;;;;41.50;38.02;100981.66;5055933;28;20526;-87
2023/04/25 08:08:07;;;;;;;19.23;7.50;;;;;;;41.41;38.06;100980.91;5057065;28;20423;-87
2023/04/25 08:10:36;;;;;;;21.80;11.80;;;;;;;41.48;37.81;100980.38;5058186;28;20470;-84
2023/04/25 08:13:02;;;;;;;20.30;9.90;;;;;;;41.65;37.57;100984.94;5065810;28;20446;-84
2023/04/25 08:15:28;;;;;;;18.67;11.23;;;;;;;41.55;38.05;100980.66;5067873;28;20428;-84
2023/04/25 08:17:54;;;;;;;25.83;11.83;;;;;;;41.68;37.98;100978.81;5081717;28;20425;-85
2023/04/25 08:20:20;;;;;;;19.13;10.03;;;;;;;41.75;37.16;100988.13;5065268;28;20413;-86
2023/04/25 08:22:48;;;;;;;19.30;10.60;;;;;;;41.44;37.67;100980.25;5077288;28;20421;-85
2023/04/25 08:25:14;;;;;;;23.37;12.67;;;;;;;41.47;37.41;100984.22;5083764;28;20466;-85
2023/04/25 08:27:41;;;;;;;28.93;11.90;;;;;;;41.48;37.75;100989.34;5083460;28;20432;-86
2023/04/25 08:30:08;;;;;;;18.13;11.77;;;;;;;41.79;37.46;100988.25;5055143;28;20422;-86
2023/04/25 08:32:37;;;;;;;29.17;11.03;;;;;;;41.81;37.59;100994.19;5053354;28;20453;-87
2023/04/25 08:35:04;;;;;;;16.87;8.70;;;;;;;41.77;36.88;100991.31;5054975;28;20442;-87
2023/04/25 08:37:30;;;;;;;22.60;8.90;;;;;;;41.87;37.14;100984.69;5067738;28;20424;-85
2023/04/25 08:39:56;;;;;;;16.57;8.30;;;;;;;41.65;37.51;100990.38;5080283;28;20953;-84
2023/04/25 08:42:24;;;;;;;17.63;8.03;;;;;;;41.75;37.30;100990.03;5062763;28;20434;-84
2023/04/25 08:44:53;;;;;;;13.37;6.60;;;;;;;41.81;37.08;100994.19;5061115;28;20494;-86
2023/04/25 08:47:23;;;;;;;13.27;7.13;;;;;;;41.82;37.17;100999.28;5056366;28;20958;-86
2023/04/25 08:49:51;;;;;;;18.70;7.80;;;;;;;41.88;37.26;101001.81;5074141;28;20804;-87
2023/04/25 08:52:22;;;;;;;12.67;6.77;;;;;;;41.95;37.45;101000.16;5056560;28;20418;-87
2023/04/25 08:54:49;;;;;;;21.07;7.20;;;;;;;41.92;37.29;100998.09;5064660;28;20425;-87
2023/04/25 08:57:17;;;;;;;12.87;8.00;;;;;;;41.99;37.10;101008.47;5067142;28;20847;-86
2023/04/25 08:59:45;;;;;;;18.87;6.40;;;;;;;41.73;37.54;101016.75;5064683;28;20431;-86
2023/04/25 09:02:15;;;;;;;12.60;6.20;;;;;;;41.84;37.21;101007.13;5065382;28;20421;-86
2023/04/25 09:04:44;;;;;;;12.33;7.10;;;;;;;41.63;37.76;101012.50;5064934;28;20453;-87
2023/04/25 09:07:10;;;;;;;13.43;6.20;;;;;;;41.83;37.24;101016.44;5067661;28;20453;-87
2023/04/25 09:09:36;;;;;;;16.60;5.20;;;;;;;41.79;37.42;101010.03;5058651;28;20411;-87
2023/04/25 09:12:03;;;;;;;16.20;6.10;;;;;;;41.85;37.46;101008.72;5052108;28;20472;-87
2023/04/25 09:14:29;;;;;;;15.87;7.30;;;;;;;41.91;37.43;101018.28;5069753;28;20414;-86
2023/04/25 09:16:55;;;;;;;15.83;7.50;;;;;;;41.84;37.18;101024.25;5069488;28;20496;-87
2023/04/25 09:19:32;;;;;;;21.83;6.93;;;;;;;41.89;37.53;101020.56;5059009;28;20555;-87
2023/04/25 09:22:00;;;;;;;22.23;6.30;;;;;;;41.86;37.66;101026.66;5075215;28;20186;-88
2023/04/25 09:24:37;;;;;;;15.33;5.33;;;;;;;41.81;37.45;101026.88;5086993;28;20444;-87
2023/04/25 09:27:10;;;;;;;11.60;5.70;;;;;;;41.69;37.33;101021.28;5061740;28;20429;-86
2023/04/25 09:29:41;;;;;;;12.03;5.70;;;;;;;41.95;37.56;101032.06;5078042;28;20425;-87
2023/04/25 09:32:20;;;;;;;13.63;5.63;;;;;;;41.96;37.01;101039.91;5081576;28;21636;-87
2023/04/25 09:34:52;;;;;;;11.73;5.60;;;;;;;42.05;37.21;101045.28;5080652;28;20467;-88
2023/04/25 09:37:23;;;;;;;18.20;5.70;;;;;;;42.06;36.91;101039.53;5065733;28;20933;-88
2023/04/25 09:39:54;;;;;;;15.43;5.90;;;;;;;42.10;37.20;101032.25;5072990;28;20797;-88
2023/04/25 09:42:24;;;;;;;15.03;6.97;;;;;;;42.05;36.96;101054.28;5068068;28;20424;-86
2023/04/25 09:44:52;;;;;;;16.83;8.30;;;;;;;42.21;37.11;101051.78;5060940;28;20482;-88
2023/04/25 09:47:21;;;;;;;14.43;7.70;;;;;;;42.17;37.12;101050.84;5063191;28;20431;-88
2023/04/25 09:49:47;;;;;;;15.67;8.30;;;;;;;41.84;37.49;101051.50;5054672;28;20418;-88
2023/04/25 09:52:20;;;;;;;17.40;5.67;;;;;;;41.90;37.31;101060.28;5061842;28;20421;-84
2023/04/25 09:54:47;;;;;;;14.50;6.00;;;;;;;41.97;37.26;101059.78;5070282;28;20963;-86
2023/04/25 09:57:23;;;;;;;14.03;6.00;;;;;;;42.05;37.58;101067.09;5068475;28;20422;-86
2023/04/25 09:59:51;;;;;;;10.43;5.07;;;;;;;42.11;37.48;101063.88;5063133;28;20449;-85
2023/04/25 10:02:24;;;;;;;15.90;6.00;;;;;;;42.15;37.34;101064.00;5081237;28;20977;-86
2023/04/25 10:04:54;;;;;;;13.23;6.90;;;;;;;42.17;37.44;101069.94;5065256;28;20493;-85
2023/04/25 10:07:26;;;;;;;14.77;6.03;;;;;;;42.22;37.33;101063.50;5069261;28;20421;-86
2023/04/25 10:10:02;;;;;;;19.07;6.87;;;;;;;42.01;36.95;101061.50;5063000;28;20419;-87
2023/04/25 10:12:31;;;;;;;12.43;9.63;;;;;;;42.20;37.05;101069.28;5066230;28;20940;-85
2023/04/25 10:14:58;;;;;;;15.87;7.50;;;;;;;41.99;37.75;101061.06;5073882;28;21121;-87
2023/04/25 10:17:26;;;;;;;16.93;7.57;;;;;;;42.13;37.62;101066.25;5072584;28;20447;-85
2023/04/25 10:19:54;;;;;;;13.37;6.10;;;;;;;42.21;37.69;101070.88;5068046;28;20774;-87
2023/04/25 10:22:39;;;;;;;14.50;6.37;;;;;;;42.14;37.61;101065.13;5061032;28;20834;-88
2023/04/25 10:25:08;;;;;;;14.10;6.93;;;;;;;42.29;37.61;101078.19;5056638;28;20462;-88
2023/04/25 10:27:35;;;;;;;11.50;6.00;;;;;;;42.33;37.53;101079.13;5065608;28;20504;-85
2023/04/25 10:30:14;;;;;;;18.13;6.90;;;;;;;42.32;37.42;101065.81;5068928;28;20414;-87
2023/04/25 10:32:49;;;;;;;15.60;6.63;;;;;;;42.36;37.85;101067.56;5057442;28;20445;-87
2023/04/25 10:35:18;;;;;;;15.43;7.30;;;;;;;42.29;37.16;101063.75;5064659;28;20520;-86
2023/04/25 10:38:05;;;;;;;18.60;8.13;;;;;;;42.17;37.77;101063.69;5065408;28;20423;-85
2023/04/25 10:40:32;;;;;;;9.80;5.50;;;;;;;42.20;37.06;101061.09;5057254;28;20410;-87
2023/04/25 10:43:35;;;;;;;15.10;6.70;;;;;;;42.09;37.50;101063.38;5081647;28;20420;-85
2023/04/25 10:46:01;;;;;;;17.20;8.40;;;;;;;42.24;37.26;101053.88;5056888;28;20458;-84
2023/04/25 10:48:31;;;;;;;16.93;6.30;;;;;;;42.27;37.17;101055.91;5056482;28;20480;-88
2023/04/25 10:51:10;;;;;;;17.33;6.57;;;;;;;42.39;37.08;101052.47;5062866;28;20430;-88
2023/04/25 10:53:37;;;;;;;12.43;5.37;;;;;;;42.37;37.02;101055.53;5055378;28;20426;-90
2023/04/25 10:56:18;;;;;;;12.40;6.23;;;;;;;42.44;37.45;101056.91;5055061;28;20419;-87
2023/04/25 10:58:46;;;;;;;17.10;7.83;;;;;;;42.18;37.48;101048.94;5054047;28;20488;-89
2023/04/25 11:01:20;;;;;;;16.70;6.30;;;;;;;42.21;37.15;101046.34;5054189;28;20435;-87
2023/04/25 11:03:50;;;;;;;13.07;6.30;;;;;;;42.38;37.08;101043.47;5063144;28;20449;-86
2023/04/25 11:06:26;;;;;;;18.23;7.20;;;;;;;42.47;37.15;101042.59;5060209;28;20423;-87
2023/04/25 11:08:53;;;;;;;10.33;6.40;;;;;;;42.52;37.32;101039.69;5063641;28;20943;-86
2023/04/25 11:11:21;;;;;;;13.97;6.43;;;;;;;42.51;37.56;101040.81;5056161;28;20418;-89
2023/04/25 11:13:51;;;;;;;16.80;5.70;;;;;;;42.51;37.08;101029.91;5055056;28;20517;-89